createdAt,value
2018-12-26T00:00:19.295Z,8.61
2018-12-26T00:02:54.429Z,8.60
2018-12-26T00:09:00.756Z,8.52
2018-12-26T00:11:36.886Z,8.54
2018-12-26T00:14:18.509Z,8.60
2018-12-26T00:16:49.624Z,8.60
2018-12-26T00:19:20.904Z,8.60
2018-12-26T00:22:26.691Z,8.57
2018-12-26T00:25:19.403Z,8.59
2018-12-26T00:27:51.011Z,8.54
2018-12-26T00:30:23.425Z,8.60
2018-12-26T00:33:20.743Z,8.61
2018-12-26T00:36:09.951Z,8.53
2018-12-26T00:38:58.588Z,8.50
2018-12-26T00:41:44.887Z,8.50
2018-12-26T00:44:29.038Z,8.53
2018-12-26T00:47:20.730Z,8.56
2018-12-26T00:50:18.129Z,8.53
2018-12-26T00:53:07.890Z,8.55
2018-12-26T00:55:46.246Z,8.49
2018-12-26T00:58:17.211Z,8.49
2018-12-26T01:00:49.950Z,8.53
2018-12-26T01:03:25.724Z,8.56
2018-12-26T01:06:01.543Z,8.58
2018-12-26T01:08:41.136Z,8.57
2018-12-26T01:11:11.985Z,8.56
2018-12-26T01:13:51.178Z,8.59
2018-12-26T01:16:41.874Z,8.55
2018-12-26T01:19:14.679Z,8.50
2018-12-26T01:21:51.323Z,8.49
2018-12-26T01:24:27.637Z,8.49
2018-12-26T01:27:00.504Z,8.53
2018-12-26T01:29:33.156Z,8.52
2018-12-26T01:32:20.722Z,8.56
2018-12-26T01:34:51.710Z,8.59
2018-12-26T01:37:26.092Z,8.53
2018-12-26T01:40:01.331Z,8.56
2018-12-26T01:42:32.576Z,8.59
2018-12-26T01:45:09.394Z,8.61
2018-12-26T01:48:02.341Z,8.61
2018-12-26T01:50:28.083Z,8.56
2018-12-26T01:53:06.676Z,8.55
2018-12-26T01:55:42.869Z,8.57
2018-12-26T01:58:22.798Z,8.56
2018-12-26T02:01:22.988Z,8.52
2018-12-26T02:04:39.886Z,8.59
2018-12-26T02:06:51.619Z,8.56
2018-12-26T02:09:31.912Z,8.55
2018-12-26T02:12:19.185Z,8.51
2018-12-26T02:14:41.707Z,8.50
2018-12-26T02:17:33.066Z,8.48
2018-12-26T02:20:04.383Z,8.45
2018-12-26T02:22:42.949Z,8.42
2018-12-26T02:25:19.031Z,8.41
2018-12-26T02:31:00.087Z,8.48
2018-12-26T02:33:45.144Z,8.51
2018-12-26T02:36:16.293Z,8.53
2018-12-26T02:38:50.684Z,8.54
2018-12-26T02:41:28.103Z,8.54
2018-12-26T02:44:05.310Z,8.56
2018-12-26T02:46:40.693Z,8.59
2018-12-26T02:49:13.289Z,8.55
2018-12-26T02:51:44.303Z,8.54
2018-12-26T02:54:17.038Z,8.56
2018-12-26T02:56:51.859Z,8.60
2018-12-26T02:59:24.624Z,8.61
2018-12-26T03:02:04.162Z,8.56
2018-12-26T03:04:35.496Z,8.56
2018-12-26T03:07:08.134Z,8.56
2018-12-26T03:09:45.582Z,8.55
2018-12-26T03:12:21.001Z,8.56
2018-12-26T03:14:59.855Z,8.53
2018-12-26T03:17:37.002Z,8.55
2018-12-26T03:20:10.125Z,8.55
2018-12-26T03:22:49.981Z,8.53
2018-12-26T03:25:30.541Z,8.48
2018-12-26T03:28:11.579Z,8.51
2018-12-26T03:30:47.292Z,8.52
2018-12-26T03:33:21.332Z,8.52
2018-12-26T03:35:56.652Z,8.51
2018-12-26T03:38:33.903Z,8.49
2018-12-26T03:41:08.475Z,8.47
2018-12-26T03:43:45.931Z,8.42
2018-12-26T03:46:20.967Z,8.41
2018-12-26T03:49:03.716Z,8.36
2018-12-26T03:51:26.690Z,8.34
2018-12-26T03:54:11.611Z,8.34
2018-12-26T03:56:42.218Z,8.27
2018-12-26T03:59:20.063Z,8.27
2018-12-26T04:02:00.246Z,8.20
2018-12-26T04:04:33.179Z,8.15
2018-12-26T04:07:13.968Z,8.13
2018-12-26T04:10:50.035Z,8.12
2018-12-26T04:13:05.886Z,8.06
2018-12-26T04:15:42.338Z,8.10
2018-12-26T04:18:13.409Z,8.10
2018-12-26T04:20:51.651Z,8.10
2018-12-26T04:23:25.792Z,8.11
2018-12-26T04:26:01.524Z,8.10
2018-12-26T04:28:38.799Z,8.02
2018-12-26T04:31:12.892Z,8.02
2018-12-26T04:33:43.780Z,8.06
2018-12-26T04:36:16.078Z,8.09
2018-12-26T04:38:53.384Z,8.05
2018-12-26T04:41:37.599Z,8.04
2018-12-26T04:44:08.531Z,8.04
2018-12-26T04:46:54.815Z,8.01
2018-12-26T04:49:28.248Z,7.98
2018-12-26T04:52:05.172Z,7.92
2018-12-26T04:54:45.450Z,7.92
2018-12-26T04:57:24.483Z,7.91
2018-12-26T04:59:53.396Z,7.96
2018-12-26T05:02:28.506Z,7.92
2018-12-26T05:05:15.146Z,7.93
2018-12-26T05:07:46.439Z,7.90
2018-12-26T05:10:31.372Z,7.93
2018-12-26T05:13:05.790Z,7.91
2018-12-26T05:15:42.962Z,7.81
2018-12-26T05:18:29.670Z,7.72
2018-12-26T05:21:12.281Z,7.75
2018-12-26T05:23:47.309Z,7.73
2018-12-26T05:26:36.073Z,7.73
2018-12-26T05:29:28.408Z,7.77
2018-12-26T05:32:09.750Z,7.76
2018-12-26T05:34:43.743Z,7.79
2018-12-26T05:37:54.089Z,7.81
2018-12-26T05:40:01.383Z,7.82
2018-12-26T05:42:35.958Z,7.84
2018-12-26T05:45:09.927Z,7.81
2018-12-26T05:47:51.581Z,7.79
2018-12-26T05:50:34.271Z,7.77
2018-12-26T05:53:20.167Z,7.75
2018-12-26T05:56:21.111Z,7.77
2018-12-26T06:02:03.647Z,7.82
2018-12-26T06:04:31.960Z,7.86
2018-12-26T06:07:23.632Z,7.79
2018-12-26T06:09:57.678Z,7.71
2018-12-26T06:12:29.894Z,7.65
2018-12-26T06:15:03.974Z,7.65
2018-12-26T06:18:13.915Z,7.64
2018-12-26T06:20:56.004Z,7.57
2018-12-26T06:23:38.446Z,7.61
2018-12-26T06:26:14.962Z,7.57
2018-12-26T06:28:52.688Z,7.52
2018-12-26T06:31:29.468Z,7.45
2018-12-26T06:34:06.553Z,7.36
2018-12-26T06:36:41.089Z,7.33
2018-12-26T06:39:16.681Z,7.30
2018-12-26T06:41:48.865Z,7.32
2018-12-26T06:44:29.581Z,7.28
2018-12-26T06:47:00.781Z,7.33
2018-12-26T06:49:45.307Z,7.38
2018-12-26T06:52:17.243Z,7.43
2018-12-26T06:54:56.733Z,7.42
2018-12-26T06:57:27.301Z,7.41
2018-12-26T07:00:04.826Z,7.38
2018-12-26T07:02:36.841Z,7.36
2018-12-26T07:05:56.280Z,7.40
2018-12-26T07:07:46.285Z,7.41
2018-12-26T07:10:20.903Z,7.35
2018-12-26T07:12:54.196Z,7.35
2018-12-26T07:16:20.534Z,7.31
2018-12-26T07:18:13.725Z,7.28
2018-12-26T07:20:44.688Z,7.28
2018-12-26T07:23:21.184Z,7.30
2018-12-26T07:26:03.297Z,7.32
2018-12-26T07:28:37.182Z,7.21
2018-12-26T07:31:09.231Z,7.25
2018-12-26T07:34:11.815Z,7.28
2018-12-26T07:36:25.842Z,7.24
2018-12-26T07:39:11.239Z,7.19
2018-12-26T07:41:43.985Z,7.15
2018-12-26T07:44:20.202Z,7.20
2018-12-26T07:47:02.073Z,7.21
2018-12-26T07:49:30.763Z,7.12
2018-12-26T07:52:50.687Z,7.11
2018-12-26T07:55:24.306Z,7.07
2018-12-26T07:58:17.972Z,7.02
2018-12-26T08:00:44.300Z,6.99
2018-12-26T08:03:29.907Z,6.88
2018-12-26T08:06:18.478Z,6.80
2018-12-26T08:08:46.071Z,6.86
2018-12-26T08:11:30.996Z,6.90
2018-12-26T08:14:04.614Z,6.95
2018-12-26T08:16:36.647Z,6.94
2018-12-26T08:19:09.705Z,6.91
2018-12-26T08:21:50.143Z,6.95
2018-12-26T08:24:26.889Z,7.00
2018-12-26T08:27:05.836Z,7.03
2018-12-26T08:29:36.915Z,6.97
2018-12-26T08:32:18.208Z,6.94
2018-12-26T08:35:04.043Z,6.98
2018-12-26T08:37:35.673Z,7.01
2018-12-26T08:40:29.674Z,7.04
2018-12-26T08:43:24.764Z,7.01
2018-12-26T08:46:23.200Z,6.99
2018-12-26T08:48:55.665Z,7.00
2018-12-26T08:51:33.681Z,7.05
2018-12-26T08:54:29.425Z,7.09
2018-12-26T08:57:04.743Z,7.09
2018-12-26T08:59:45.699Z,7.10
2018-12-26T09:02:20.635Z,7.12
2018-12-26T09:05:02.050Z,7.10
2018-12-26T09:07:35.073Z,7.16
2018-12-26T09:10:12.219Z,7.15
2018-12-26T09:12:53.297Z,7.19
2018-12-26T09:15:39.130Z,7.28
2018-12-26T09:17:57.155Z,7.27
2018-12-26T09:20:37.235Z,7.33
2018-12-26T09:23:12.040Z,7.41
2018-12-26T09:26:00.957Z,7.41
2018-12-26T09:28:43.958Z,7.42
2018-12-26T09:31:18.818Z,7.47
2018-12-26T09:33:49.768Z,7.41
2018-12-26T09:36:23.550Z,7.37
2018-12-26T09:38:54.832Z,7.40
2018-12-26T09:41:40.495Z,7.36
2018-12-26T09:44:11.434Z,7.37
2018-12-26T09:46:42.854Z,7.48
2018-12-26T09:49:13.847Z,7.54
2018-12-26T09:51:44.932Z,7.63
2018-12-26T09:54:17.132Z,7.65
2018-12-26T09:57:11.435Z,7.72
2018-12-26T09:59:33.824Z,7.60
2018-12-26T10:02:00.563Z,7.57
2018-12-26T10:04:31.552Z,7.47
2018-12-26T10:07:05.804Z,7.45
2018-12-26T10:09:38.591Z,7.42
2018-12-26T10:12:16.266Z,7.34
2018-12-26T10:15:03.439Z,7.39
2018-12-26T10:18:06.354Z,7.43
2018-12-26T10:20:39.299Z,7.36
2018-12-26T10:23:30.924Z,7.37
2018-12-26T10:26:21.979Z,7.43
2018-12-26T10:29:00.958Z,7.57
2018-12-26T10:31:44.526Z,7.59
2018-12-26T10:34:17.455Z,7.53
2018-12-26T10:36:46.967Z,7.39
2018-12-26T10:39:18.111Z,7.37
2018-12-26T10:42:01.083Z,7.37
2018-12-26T10:44:51.299Z,7.45
2018-12-26T10:47:29.872Z,7.51
2018-12-26T10:50:06.792Z,7.52
2018-12-26T10:52:39.316Z,7.60
2018-12-26T10:55:13.515Z,7.59
2018-12-26T10:57:47.587Z,7.63
2018-12-26T11:00:21.370Z,7.53
2018-12-26T11:02:52.576Z,7.45
2018-12-26T11:05:29.465Z,7.42
2018-12-26T11:07:57.137Z,7.37
2018-12-26T11:10:30.226Z,7.28
2018-12-26T11:13:02.698Z,7.28
2018-12-26T11:15:44.683Z,7.23
2018-12-26T11:18:11.916Z,7.17
2018-12-26T11:20:43.278Z,7.15
2018-12-26T11:23:16.976Z,7.14
2018-12-26T11:25:49.749Z,7.20
2018-12-26T11:28:22.142Z,7.23
2018-12-26T11:31:21.098Z,7.21
2018-12-26T11:33:49.180Z,7.25
2018-12-26T11:36:25.610Z,7.39
2018-12-26T11:39:02.491Z,7.43
2018-12-26T11:41:38.155Z,7.42
2018-12-26T11:44:12.464Z,7.35
2018-12-26T11:46:43.417Z,7.30
2018-12-26T11:49:22.654Z,7.32
2018-12-26T11:51:54.709Z,7.32
2018-12-26T11:54:31.900Z,7.41
2018-12-26T11:57:10.207Z,7.37
2018-12-26T11:59:44.710Z,7.41
2018-12-26T12:02:20.651Z,7.45
2018-12-26T12:04:51.484Z,7.52
2018-12-26T12:07:27.234Z,7.52
2018-12-26T12:10:02.940Z,7.52
2018-12-26T12:12:41.521Z,7.58
2018-12-26T12:15:12.944Z,7.57
2018-12-26T12:17:45.437Z,7.63
2018-12-26T12:20:18.968Z,7.62
2018-12-26T12:22:59.865Z,7.67
2018-12-26T12:25:31.096Z,7.72
2018-12-26T12:28:08.396Z,7.71
2018-12-26T12:30:39.430Z,7.65
2018-12-26T12:33:12.327Z,7.65
2018-12-26T12:35:54.978Z,7.63
2018-12-26T12:38:37.217Z,7.63
2018-12-26T12:41:11.899Z,7.61
2018-12-26T12:43:46.716Z,7.51
2018-12-26T12:46:19.145Z,7.42
2018-12-26T12:48:54.255Z,7.45
2018-12-26T12:51:56.247Z,7.53
2018-12-26T12:54:08.487Z,7.60
2018-12-26T12:56:41.564Z,7.65
2018-12-26T12:59:12.413Z,7.64
2018-12-26T13:01:45.870Z,7.54
2018-12-26T13:04:19.507Z,7.61
2018-12-26T13:06:51.622Z,7.61
2018-12-26T13:09:22.636Z,7.62
2018-12-26T13:11:57.341Z,7.70
2018-12-26T13:14:55.366Z,7.72
2018-12-26T13:17:34.229Z,7.72
2018-12-26T13:20:14.163Z,7.72
2018-12-26T13:22:51.019Z,7.78
2018-12-26T13:25:27.393Z,7.73
2018-12-26T13:28:04.196Z,7.71
2018-12-26T13:30:43.560Z,7.67
2018-12-26T13:33:21.313Z,7.64
2018-12-26T13:36:02.789Z,7.61
2018-12-26T13:38:45.204Z,7.59
2018-12-26T13:41:20.833Z,7.66
2018-12-26T13:43:54.161Z,7.69
2018-12-26T13:46:33.734Z,7.66
2018-12-26T13:49:03.922Z,7.63
2018-12-26T13:51:37.296Z,7.67
2018-12-26T13:54:09.790Z,7.72
2018-12-26T13:56:40.638Z,7.72
2018-12-26T13:59:11.477Z,7.75
2018-12-26T14:01:45.641Z,7.80
2018-12-26T14:04:16.465Z,7.86
2018-12-26T14:06:47.268Z,7.84
2018-12-26T14:09:45.108Z,7.88
2018-12-26T14:12:01.400Z,7.90
2018-12-26T14:14:44.884Z,7.86
2018-12-26T14:17:18.416Z,7.86
2018-12-26T14:19:52.394Z,7.82
2018-12-26T14:22:30.131Z,7.77
2018-12-26T14:25:03.808Z,7.77
2018-12-26T14:27:37.033Z,7.81
2018-12-26T14:30:17.526Z,7.86
2018-12-26T14:32:49.874Z,7.93
2018-12-26T14:35:28.995Z,7.99
2018-12-26T14:38:17.767Z,8.03
2018-12-26T14:40:44.519Z,8.04
2018-12-26T14:43:35.671Z,8.08
2018-12-26T14:46:12.044Z,8.07
2018-12-26T14:48:48.209Z,8.02
2018-12-26T14:51:26.332Z,7.99
2018-12-26T14:53:57.509Z,8.02
2018-12-26T14:56:29.227Z,8.05
2018-12-26T14:59:02.142Z,8.08
2018-12-26T15:01:49.168Z,8.09
2018-12-26T15:04:25.480Z,8.01
2018-12-26T15:06:58.319Z,8.00
2018-12-26T15:09:32.761Z,8.00
2018-12-26T15:12:07.450Z,8.07
2018-12-26T15:14:38.441Z,8.11
2018-12-26T15:17:12.242Z,8.13
2018-12-26T15:19:49.019Z,8.10
2018-12-26T15:22:18.117Z,8.11
2018-12-26T15:24:52.971Z,8.12
2018-12-26T15:27:34.025Z,8.16
2018-12-26T15:30:02.000Z,8.23
2018-12-26T15:32:33.124Z,8.26
2018-12-26T15:35:03.881Z,8.29
2018-12-26T15:37:38.298Z,8.32
2018-12-26T15:40:12.514Z,8.36
2018-12-26T15:42:52.444Z,8.34
2018-12-26T15:45:25.632Z,8.37
2018-12-26T15:48:24.735Z,8.36
2018-12-26T15:51:16.002Z,8.28
2018-12-26T15:53:57.806Z,8.33
2018-12-26T15:56:29.138Z,8.38
2018-12-26T15:59:02.898Z,8.39
2018-12-26T16:01:35.319Z,8.35
2018-12-26T16:04:09.469Z,8.35
2018-12-26T16:06:40.393Z,8.32
2018-12-26T16:09:26.765Z,8.33
2018-12-26T16:12:07.210Z,8.36
2018-12-26T16:14:39.146Z,8.39
2018-12-26T16:17:10.114Z,8.43
2018-12-26T16:19:41.341Z,8.46
2018-12-26T16:22:25.170Z,8.46
2018-12-26T16:25:04.706Z,8.42
2018-12-26T16:27:43.534Z,8.42
2018-12-26T16:30:14.555Z,8.41
2018-12-26T16:32:48.660Z,8.39
2018-12-26T16:35:23.500Z,8.42
2018-12-26T16:38:02.242Z,8.43
2018-12-26T16:40:40.860Z,8.45
2018-12-26T16:43:18.535Z,8.51
2018-12-26T16:45:53.238Z,8.50
2018-12-26T16:49:01.474Z,8.48
2018-12-26T16:51:42.124Z,8.54
2018-12-26T16:54:25.621Z,8.61
2018-12-26T16:57:02.536Z,8.66
2018-12-26T16:59:47.883Z,8.62
2018-12-26T17:02:13.555Z,8.56
2018-12-26T17:04:49.413Z,8.55
2018-12-26T17:07:45.498Z,8.53
2018-12-26T17:10:25.256Z,8.56
2018-12-26T17:13:04.785Z,8.54
2018-12-26T17:15:46.018Z,8.59
2018-12-26T17:18:54.708Z,8.57
2018-12-26T17:21:05.145Z,8.60
2018-12-26T17:23:39.153Z,8.62
2018-12-26T17:26:13.392Z,8.56
2018-12-26T17:29:00.078Z,8.51
2018-12-26T17:31:33.077Z,8.47
2018-12-26T17:34:06.932Z,8.45
2018-12-26T17:36:52.459Z,8.45
2018-12-26T17:39:24.631Z,8.39
2018-12-26T17:41:59.706Z,8.40
2018-12-26T17:44:32.064Z,8.43
2018-12-26T17:47:04.961Z,8.46
2018-12-26T17:49:42.372Z,8.53
2018-12-26T17:52:15.079Z,8.59
2018-12-26T17:55:40.749Z,8.54
2018-12-26T17:58:20.596Z,8.49
2018-12-26T18:01:53.811Z,8.50
2018-12-26T18:04:29.401Z,8.46
2018-12-26T18:07:00.247Z,8.48
2018-12-26T18:09:32.485Z,8.52
2018-12-26T18:12:11.827Z,8.51
2018-12-26T18:14:41.599Z,8.50
2018-12-26T18:17:15.542Z,8.52
2018-12-26T18:19:51.147Z,8.59
2018-12-26T18:22:25.477Z,8.56
2018-12-26T18:24:56.416Z,8.58
2018-12-26T18:27:44.016Z,8.49
2018-12-26T18:30:21.202Z,8.52
2018-12-26T18:32:56.895Z,8.57
2018-12-26T18:35:41.349Z,8.56
2018-12-26T18:38:24.572Z,8.60
2018-12-26T18:41:06.578Z,8.61
2018-12-26T18:44:05.399Z,8.61
2018-12-26T18:46:36.261Z,8.58
2018-12-26T18:49:22.128Z,8.59
2018-12-26T18:52:00.788Z,8.63
2018-12-26T18:54:46.609Z,8.64
2018-12-26T18:57:34.229Z,8.66
2018-12-26T19:00:11.860Z,8.69
2018-12-26T19:02:54.103Z,8.72
2018-12-26T19:05:24.582Z,8.76
2018-12-26T19:08:02.887Z,8.75
2018-12-26T19:10:49.926Z,8.77
2018-12-26T19:13:20.980Z,8.78
2018-12-26T19:15:56.079Z,8.84
2018-12-26T19:20:15.942Z,8.88
2018-12-26T19:21:27.539Z,8.91
2018-12-26T19:24:15.020Z,8.83
2018-12-26T19:26:37.914Z,8.84
2018-12-26T19:29:36.310Z,8.88
2018-12-26T19:32:26.657Z,8.86
2018-12-26T19:35:00.178Z,8.88
2018-12-26T19:37:35.693Z,8.89
2018-12-26T19:40:12.845Z,8.90
2018-12-26T19:42:46.007Z,8.89
2018-12-26T19:45:24.745Z,8.90
2018-12-26T19:47:55.591Z,8.86
2018-12-26T19:50:38.476Z,8.87
2018-12-26T19:53:27.454Z,8.97
2018-12-26T19:55:57.085Z,8.97
2018-12-26T19:58:37.691Z,8.99
2018-12-26T20:01:10.344Z,8.99
2018-12-26T20:03:42.491Z,9.01
2018-12-26T20:06:14.102Z,8.97
2018-12-26T20:08:45.660Z,9.04
2018-12-26T20:11:16.517Z,9.08
2018-12-26T20:13:53.695Z,9.03
2018-12-26T20:16:25.779Z,9.01
2018-12-26T20:19:01.427Z,9.00
2018-12-26T20:21:41.252Z,9.02
2018-12-26T20:24:22.809Z,9.06
2018-12-26T20:34:15.022Z,8.93
2018-12-26T20:36:57.293Z,8.92
2018-12-26T20:40:20.121Z,8.89
2018-12-26T20:43:01.333Z,8.90
2018-12-26T20:45:37.499Z,8.97
2018-12-26T20:48:28.239Z,8.95
2018-12-26T20:51:12.047Z,8.92
2018-12-26T20:54:55.373Z,8.94
2018-12-26T20:56:50.150Z,8.92
2018-12-26T21:00:08.620Z,8.92
2018-12-26T21:03:08.745Z,8.99
2018-12-26T21:05:47.947Z,8.99
2018-12-26T21:08:29.563Z,9.03
2018-12-26T21:11:40.424Z,9.03
2018-12-26T21:14:08.925Z,8.98
2018-12-26T21:16:40.052Z,8.96
2018-12-26T21:19:11.268Z,8.97
2018-12-26T21:22:07.188Z,8.96
2018-12-26T21:24:43.992Z,8.95
2018-12-26T21:27:34.492Z,8.88
2018-12-26T21:30:17.407Z,8.94
2018-12-26T21:32:55.836Z,9.00
2018-12-26T21:35:25.566Z,8.89
2018-12-26T21:38:04.149Z,8.84
2018-12-26T21:40:50.965Z,8.85
2018-12-26T21:43:33.343Z,8.87
2018-12-26T21:46:02.525Z,8.87
2018-12-26T21:48:39.868Z,8.84
2018-12-26T21:51:15.646Z,8.85
2018-12-26T21:56:05.007Z,8.81
2018-12-26T21:57:03.771Z,8.79
2018-12-26T21:59:36.746Z,8.78
2018-12-26T22:02:22.636Z,8.74
2018-12-26T22:04:46.930Z,8.76
2018-12-26T22:07:20.319Z,8.78
2018-12-26T22:10:12.226Z,8.81
2018-12-26T22:12:36.561Z,8.87
2018-12-26T22:15:09.816Z,8.82
2018-12-26T22:18:14.714Z,8.78
2018-12-26T22:21:50.174Z,8.71
2018-12-26T22:23:45.924Z,8.71
2018-12-26T22:26:20.091Z,8.72
2018-12-26T22:28:53.811Z,8.72
2018-12-26T22:31:39.698Z,8.72
2018-12-26T22:35:10.739Z,8.71
2018-12-26T22:37:28.831Z,8.67
2018-12-26T22:40:10.801Z,8.69
2018-12-26T22:43:16.413Z,8.69
2018-12-26T22:45:59.586Z,8.74
2018-12-26T22:48:30.669Z,8.76
2018-12-26T22:51:47.248Z,8.76
2018-12-26T22:55:36.786Z,8.68
2018-12-26T22:58:52.023Z,8.71
2018-12-26T23:00:49.419Z,8.76
2018-12-26T23:03:22.687Z,8.82
2018-12-26T23:05:55.364Z,8.86
2018-12-26T23:08:32.463Z,8.88
2018-12-26T23:11:31.242Z,8.84
2018-12-26T23:14:03.576Z,8.78
2018-12-26T23:20:02.626Z,8.66
2018-12-26T23:23:06.561Z,8.63
2018-12-26T23:25:20.326Z,8.72
2018-12-26T23:28:16.851Z,8.76
2018-12-26T23:31:20.541Z,8.72
2018-12-26T23:33:47.962Z,8.60
2018-12-26T23:36:28.212Z,8.64
2018-12-26T23:39:00.772Z,8.68
2018-12-26T23:42:01.513Z,8.76
2018-12-26T23:48:16.021Z,8.68
2018-12-26T23:51:47.510Z,8.68
2018-12-26T23:54:27.676Z,8.67
2018-12-26T23:57:10.088Z,8.68
2018-12-26T23:59:48.728Z,8.67
